Strona główna
METAR-TAF:

METAR-TAF

Lotnisko :

Port lotniczy Kudat

Kudat, Malezja

Szerokość geograficzna: 06-55N, Długość geograficzna: 116-50E, wysokość: 3 m

Aktualna obserwacja pogody

Raport powstał 41 minut temu, godzina 07:00 UTC
Wiatr 7 kt od północno-północny wschód, zmienny między północno-północny zachód i wschód
Temperatura 32°C
Wilgotność 79%
Ciśnienie 1007 hPa
Widzialność 10 km lub więcej
Mało chmury na wysokości 1500 ft
Przerywane chmury na wysokości 29000 ft

METAR: WBKT 040700Z 03007KT 340V100 9999 FEW015 BKN290 32/28 Q1007

czas: 15:41 (07:41 UTC)


TAF: brakujący

Obserwacja i prognoza pogody dla ponad 4000 lotnisk (raport METAR i TAF).

Dostępne stacje oznaczono żółtymi i czerwonymi punktami na mapie.

Najedź kursorem aby zobaczyć nazwę stacji.

Kliknij aby zobaczyć obserwacje i prognozy pogody.

Aby zmienić mapę: kliknij na zielony przycisk z czarnym krzyżykiem, aby powiększyć; na zielony przycisk z myślnikiem, aby pomniejszyć; na zielone strzałki, aby przejść do map sąsiednich.


METAR-TAF: